createdAt,value
2022-12-04T00:01:19.133Z,94.67
2022-12-04T00:03:46.552Z,94.73
2022-12-04T00:06:14.661Z,95.05
2022-12-04T00:08:41.848Z,94.92
2022-12-04T00:11:10.340Z,95.09
2022-12-04T00:13:38.154Z,95.08
2022-12-04T00:16:11.294Z,95.14
2022-12-04T00:18:38.092Z,95.17
2022-12-04T00:21:07.370Z,95.17
2022-12-04T00:23:34.643Z,95.02
2022-12-04T00:26:05.708Z,95.12
2022-12-04T00:28:32.982Z,95.31
2022-12-04T00:30:59.762Z,95.29
2022-12-04T00:33:26.679Z,94.95
2022-12-04T00:36:01.739Z,95.40
2022-12-04T00:38:28.887Z,95.13
2022-12-04T00:40:55.852Z,95.31
2022-12-04T00:43:23.507Z,95.20
2022-12-04T00:45:50.811Z,95.08
2022-12-04T00:48:17.521Z,95.05
2022-12-04T00:50:44.505Z,95.37
2022-12-04T00:53:12.032Z,95.29
2022-12-04T00:55:42.501Z,95.30
2022-12-04T00:58:10.540Z,95.43
2022-12-04T01:00:39.190Z,95.47
2022-12-04T01:03:06.937Z,95.36
2022-12-04T01:05:39.264Z,95.37
2022-12-04T01:08:06.024Z,95.39
2022-12-04T01:10:32.944Z,95.33
2022-12-04T01:12:59.600Z,95.49
2022-12-04T01:15:26.170Z,95.44
2022-12-04T01:17:52.806Z,95.72
2022-12-04T01:20:19.599Z,95.84
2022-12-04T01:22:46.196Z,96.28
2022-12-04T01:25:12.899Z,96.42
2022-12-04T01:27:39.609Z,96.57
2022-12-04T01:30:09.577Z,96.68
2022-12-04T01:32:36.175Z,96.78
2022-12-04T01:35:02.804Z,96.95
2022-12-04T01:37:33.923Z,97.06
2022-12-04T01:40:00.869Z,97.08
2022-12-04T01:42:27.835Z,97.15
2022-12-04T01:45:31.694Z,97.36
2022-12-04T01:48:09.108Z,97.39
2022-12-04T01:50:36.066Z,97.29
2022-12-04T01:53:02.881Z,97.65
2022-12-04T01:55:30.963Z,97.77
2022-12-04T01:57:58.790Z,97.84
2022-12-04T02:00:28.051Z,98.03
2022-12-04T02:02:55.900Z,98.39
2022-12-04T02:05:23.403Z,98.39
2022-12-04T02:07:53.169Z,98.30
2022-12-04T02:10:24.688Z,98.21
2022-12-04T02:13:14.122Z,98.17
2022-12-04T02:16:39.196Z,98.30
2022-12-04T02:19:33.519Z,98.25
2022-12-04T02:22:07.224Z,98.29
2022-12-04T02:25:18.671Z,98.45
2022-12-04T02:27:51.506Z,98.68
2022-12-04T02:30:18.507Z,98.66
2022-12-04T02:32:55.467Z,98.89
2022-12-04T02:35:29.133Z,99.39
2022-12-04T02:38:10.658Z,99.35
2022-12-04T02:40:48.908Z,99.43
2022-12-04T02:43:19.024Z,99.42
2022-12-04T02:45:51.954Z,99.39
2022-12-04T02:48:20.730Z,99.42
2022-12-04T02:50:51.281Z,99.65
2022-12-04T02:53:20.991Z,99.46
2022-12-04T02:55:54.219Z,99.61
2022-12-04T02:58:34.725Z,99.69
2022-12-04T03:01:03.368Z,99.71
2022-12-04T03:03:33.315Z,99.74
2022-12-04T03:06:07.885Z,99.54
2022-12-04T03:09:00.649Z,99.93
2022-12-04T03:11:32.039Z,99.79
2022-12-04T03:14:11.751Z,100.00
2022-12-04T03:16:41.866Z,99.77
2022-12-04T03:19:19.907Z,99.71
2022-12-04T03:21:51.182Z,99.67
2022-12-04T03:24:23.619Z,99.85
2022-12-04T03:26:57.680Z,99.94
2022-12-04T03:29:34.618Z,99.87
2022-12-04T03:32:08.389Z,99.89
2022-12-04T03:35:02.966Z,100.00
2022-12-04T03:37:59.973Z,100.00
2022-12-04T03:40:38.346Z,100.00
2022-12-04T03:43:32.098Z,100.00
2022-12-04T03:46:08.327Z,100.00
2022-12-04T03:48:59.355Z,100.00
2022-12-04T03:51:34.996Z,99.90
2022-12-04T03:54:11.919Z,99.83
2022-12-04T03:57:01.430Z,99.94
2022-12-04T03:59:35.246Z,99.78
2022-12-04T04:02:04.852Z,99.89
2022-12-04T04:04:36.509Z,99.57
2022-12-04T04:07:09.632Z,99.97
2022-12-04T04:09:41.652Z,99.71
2022-12-04T04:12:22.620Z,99.65
2022-12-04T04:15:11.629Z,99.59
2022-12-04T04:17:48.637Z,99.53
2022-12-04T04:20:42.028Z,99.48
2022-12-04T04:23:30.176Z,99.38
2022-12-04T04:26:03.096Z,99.15
2022-12-04T04:28:35.435Z,99.31
2022-12-04T04:31:11.364Z,99.31
2022-12-04T04:34:07.087Z,99.22
2022-12-04T04:36:36.842Z,99.09
2022-12-04T04:39:23.662Z,99.01
2022-12-04T04:41:56.964Z,99.22
2022-12-04T04:44:32.462Z,99.51
2022-12-04T04:47:04.232Z,99.29
2022-12-04T04:49:34.052Z,99.30
2022-12-04T04:52:01.223Z,99.34
2022-12-04T04:54:29.646Z,99.15
2022-12-04T04:56:56.280Z,99.14
2022-12-04T04:59:22.888Z,98.90
2022-12-04T05:01:49.799Z,99.06
2022-12-04T05:04:16.565Z,99.07
2022-12-04T05:06:43.104Z,98.86
2022-12-04T05:09:09.782Z,98.93
2022-12-04T05:11:36.475Z,99.03
2022-12-04T05:14:03.267Z,98.90
2022-12-04T05:16:30.055Z,98.98
2022-12-04T05:19:32.172Z,98.90
2022-12-04T05:21:58.842Z,98.78
2022-12-04T05:24:25.561Z,98.64
2022-12-04T05:26:52.175Z,98.56
2022-12-04T05:29:18.769Z,98.35
2022-12-04T05:31:45.456Z,98.45
2022-12-04T05:34:12.207Z,98.47
2022-12-04T05:36:38.892Z,98.08
2022-12-04T05:39:05.480Z,98.18
2022-12-04T05:41:35.259Z,98.31
2022-12-04T05:44:01.876Z,98.35
2022-12-04T05:46:28.537Z,98.27
2022-12-04T05:48:55.223Z,98.09
2022-12-04T05:51:21.850Z,98.01
2022-12-04T05:53:52.132Z,98.12
2022-12-04T05:56:18.764Z,98.21
2022-12-04T05:58:45.360Z,98.07
2022-12-04T06:01:23.460Z,97.80
2022-12-04T06:03:50.808Z,97.83
2022-12-04T06:06:22.246Z,97.69
2022-12-04T06:08:51.567Z,97.81
2022-12-04T06:11:24.795Z,97.50
2022-12-04T06:13:51.673Z,97.50
2022-12-04T06:16:19.859Z,97.25
2022-12-04T06:18:55.135Z,97.45
2022-12-04T06:21:23.259Z,97.15
2022-12-04T06:23:50.622Z,97.33
2022-12-04T06:26:17.780Z,97.16
2022-12-04T06:28:44.433Z,96.92
2022-12-04T06:31:14.060Z,96.71
2022-12-04T06:33:43.188Z,96.35
2022-12-04T06:36:15.886Z,96.63
2022-12-04T06:38:42.986Z,96.57
2022-12-04T06:41:12.552Z,96.37
2022-12-04T06:43:40.379Z,96.60
2022-12-04T06:46:22.391Z,96.32
2022-12-04T06:48:49.875Z,96.29
2022-12-04T06:51:24.788Z,96.30
2022-12-04T06:53:52.479Z,96.14
2022-12-04T06:56:25.531Z,96.03
2022-12-04T06:58:54.792Z,95.85
2022-12-04T07:01:27.217Z,95.77
2022-12-04T07:03:54.788Z,95.55
2022-12-04T07:06:25.506Z,95.12
2022-12-04T07:08:55.237Z,94.42
2022-12-04T07:11:22.626Z,93.96
2022-12-04T07:13:50.654Z,93.74
2022-12-04T07:16:20.629Z,93.68
2022-12-04T07:18:50.404Z,93.51
2022-12-04T07:21:19.290Z,93.48
2022-12-04T07:23:51.174Z,93.59
2022-12-04T07:26:18.706Z,94.36
2022-12-04T07:28:45.736Z,94.77
2022-12-04T07:31:15.417Z,94.84
2022-12-04T07:33:42.657Z,94.68
2022-12-04T07:36:13.081Z,94.74
2022-12-04T07:38:40.265Z,94.43
2022-12-04T07:41:08.221Z,94.19
2022-12-04T07:43:35.065Z,93.61
2022-12-04T07:46:07.379Z,93.16
2022-12-04T07:48:34.514Z,92.55
2022-12-04T07:51:09.622Z,92.23
2022-12-04T07:53:37.014Z,92.22
2022-12-04T07:56:05.587Z,91.94
2022-12-04T07:58:33.590Z,91.82
2022-12-04T08:01:12.505Z,91.70
2022-12-04T08:03:46.689Z,91.43
2022-12-04T08:06:14.290Z,91.29
2022-12-04T08:08:40.926Z,91.47
2022-12-04T08:11:09.587Z,91.11
2022-12-04T08:13:36.578Z,91.18
2022-12-04T08:16:05.247Z,90.43
2022-12-04T08:18:32.504Z,90.25
2022-12-04T08:21:14.044Z,88.97
2022-12-04T08:23:43.222Z,88.33
2022-12-04T08:26:11.644Z,87.88
2022-12-04T08:28:39.524Z,87.76
2022-12-04T08:31:11.873Z,87.99
2022-12-04T08:33:39.247Z,88.43
2022-12-04T08:36:07.618Z,88.31
2022-12-04T08:38:34.559Z,88.73
2022-12-04T08:41:06.393Z,88.74
2022-12-04T08:43:33.377Z,89.12
2022-12-04T08:46:02.255Z,89.16
2022-12-04T08:48:29.288Z,89.14
2022-12-04T08:50:56.076Z,89.13
2022-12-04T08:53:23.193Z,88.98
2022-12-04T08:55:50.669Z,88.83
2022-12-04T08:58:17.905Z,88.57
2022-12-04T09:00:44.624Z,88.52
2022-12-04T09:03:17.270Z,88.68
2022-12-04T09:05:46.001Z,88.46
2022-12-04T09:08:17.717Z,88.22
2022-12-04T09:10:44.976Z,88.17
2022-12-04T09:13:11.707Z,87.75
2022-12-04T09:15:40.161Z,87.65
2022-12-04T09:18:08.239Z,87.56
2022-12-04T09:20:35.302Z,87.78
2022-12-04T09:23:04.449Z,87.73
2022-12-04T09:25:34.802Z,87.75
2022-12-04T09:28:01.390Z,87.80
2022-12-04T09:30:28.002Z,87.78
2022-12-04T09:32:54.606Z,87.92
2022-12-04T09:35:21.258Z,88.18
2022-12-04T09:37:47.859Z,87.98
2022-12-04T09:40:35.519Z,88.09
2022-12-04T09:43:26.027Z,88.13
2022-12-04T09:45:58.848Z,88.06
2022-12-04T09:48:33.359Z,87.82
2022-12-04T09:51:01.784Z,87.87
2022-12-04T09:53:34.700Z,87.38
2022-12-04T09:56:05.866Z,87.60
2022-12-04T09:58:50.848Z,87.41
2022-12-04T10:01:49.537Z,87.39
2022-12-04T10:04:17.355Z,87.10
2022-12-04T10:06:47.162Z,87.10
2022-12-04T10:09:30.022Z,86.92
2022-12-04T10:12:14.656Z,86.86
2022-12-04T10:15:03.258Z,86.84
2022-12-04T10:17:56.271Z,86.49
2022-12-04T10:20:44.389Z,86.16
2022-12-04T10:23:17.189Z,86.14
2022-12-04T10:25:43.891Z,86.15
2022-12-04T10:28:47.434Z,85.41
2022-12-04T10:31:17.512Z,85.87
2022-12-04T10:33:56.098Z,85.41
2022-12-04T10:36:30.439Z,85.29
2022-12-04T10:39:37.131Z,85.35
2022-12-04T10:42:35.850Z,85.18
2022-12-04T10:45:02.501Z,85.20
2022-12-04T10:47:29.231Z,85.12
2022-12-04T10:50:02.423Z,85.13
2022-12-04T10:52:29.096Z,84.81
2022-12-04T10:54:59.825Z,84.71
2022-12-04T10:57:44.224Z,84.68
2022-12-04T11:00:24.658Z,84.32
2022-12-04T11:02:52.635Z,84.46
2022-12-04T11:05:38.832Z,84.13
2022-12-04T11:08:07.772Z,84.22
2022-12-04T11:10:43.059Z,84.04
2022-12-04T11:13:12.799Z,83.60
2022-12-04T11:15:48.366Z,83.55
2022-12-04T11:18:46.300Z,83.42
2022-12-04T11:21:17.004Z,83.51
2022-12-04T11:23:46.163Z,83.51
2022-12-04T11:26:13.719Z,83.09
2022-12-04T11:28:45.658Z,82.71
2022-12-04T11:31:20.506Z,82.29
2022-12-04T11:33:48.987Z,82.41
2022-12-04T11:36:23.596Z,82.37
2022-12-04T11:38:53.404Z,82.29
2022-12-04T11:41:26.602Z,82.02
2022-12-04T11:43:59.369Z,81.43
2022-12-04T11:46:30.678Z,81.47
2022-12-04T11:48:57.711Z,81.54
2022-12-04T11:51:49.173Z,81.26
2022-12-04T11:54:21.950Z,80.98
2022-12-04T11:57:02.130Z,81.34
2022-12-04T11:59:47.572Z,81.54
2022-12-04T12:02:52.793Z,81.34
2022-12-04T12:05:56.822Z,81.27
2022-12-04T12:08:34.744Z,81.08
2022-12-04T12:11:16.628Z,80.99
2022-12-04T12:14:16.351Z,81.53
2022-12-04T12:19:27.797Z,81.14
2022-12-04T12:22:50.039Z,81.09
2022-12-04T12:25:22.012Z,81.28
2022-12-04T12:28:13.478Z,81.12
2022-12-04T12:31:08.693Z,80.05
2022-12-04T12:33:59.474Z,79.49
2022-12-04T12:36:31.678Z,79.07
2022-12-04T12:39:23.514Z,78.19
2022-12-04T12:41:56.337Z,78.47
2022-12-04T12:44:30.507Z,78.49
2022-12-04T12:47:04.138Z,78.25
2022-12-04T12:49:58.124Z,77.15
2022-12-04T12:52:31.789Z,76.47
2022-12-04T12:55:13.669Z,76.79
2022-12-04T12:57:44.291Z,75.60
2022-12-04T13:00:20.077Z,74.87
2022-12-04T13:02:58.204Z,75.54
2022-12-04T13:05:40.796Z,75.18
2022-12-04T13:08:20.293Z,76.67
2022-12-04T13:11:07.507Z,76.26
2022-12-04T13:13:39.313Z,75.71
2022-12-04T13:16:13.538Z,75.42
2022-12-04T13:18:46.349Z,75.80
2022-12-04T13:21:31.894Z,75.46
2022-12-04T13:24:19.971Z,74.38
2022-12-04T13:27:18.333Z,73.00
2022-12-04T13:30:06.843Z,73.88
2022-12-04T13:32:48.411Z,74.42
2022-12-04T13:35:21.093Z,73.73
2022-12-04T13:38:11.799Z,73.01
2022-12-04T13:40:45.240Z,73.98
2022-12-04T13:43:17.250Z,74.78
2022-12-04T13:45:49.231Z,75.72
2022-12-04T13:48:28.320Z,76.03
2022-12-04T13:51:04.455Z,75.25
2022-12-04T13:53:33.364Z,76.14
2022-12-04T13:56:04.561Z,77.00
2022-12-04T13:58:36.174Z,77.47
2022-12-04T14:01:04.381Z,77.61
2022-12-04T14:03:52.544Z,78.73
2022-12-04T14:06:38.648Z,79.71
2022-12-04T14:09:18.605Z,80.60
2022-12-04T14:11:48.107Z,80.96
2022-12-04T14:14:26.735Z,81.48
2022-12-04T14:16:54.785Z,81.93
2022-12-04T14:19:45.147Z,82.56
2022-12-04T14:22:35.362Z,82.50
2022-12-04T14:25:34.275Z,83.02
2022-12-04T14:28:13.627Z,83.50
2022-12-04T14:30:40.771Z,83.89
2022-12-04T14:33:21.284Z,83.90
2022-12-04T14:36:05.350Z,84.31
2022-12-04T14:38:32.892Z,84.69
2022-12-04T14:41:01.737Z,84.53
2022-12-04T14:43:35.494Z,84.68
2022-12-04T14:46:20.081Z,85.09
2022-12-04T14:49:00.563Z,85.39
2022-12-04T14:51:33.028Z,85.65
2022-12-04T14:54:41.626Z,85.73
2022-12-04T14:57:35.388Z,85.71
2022-12-04T15:00:05.240Z,85.83
2022-12-04T15:02:39.092Z,85.90
2022-12-04T15:05:11.322Z,85.94
2022-12-04T15:07:48.098Z,86.05
2022-12-04T15:10:40.955Z,86.17
2022-12-04T15:13:08.198Z,86.37
2022-12-04T15:15:35.179Z,86.20
2022-12-04T15:18:15.097Z,86.10
2022-12-04T15:20:51.303Z,86.17
2022-12-04T15:23:33.556Z,86.04
2022-12-04T15:26:11.848Z,85.88
2022-12-04T15:28:45.761Z,85.75
2022-12-04T15:31:17.489Z,85.81
2022-12-04T15:33:46.514Z,86.04
2022-12-04T15:36:18.583Z,86.30
2022-12-04T15:38:48.591Z,86.22
2022-12-04T15:41:34.070Z,86.33
2022-12-04T15:44:01.371Z,86.11
2022-12-04T15:46:38.418Z,86.41
2022-12-04T15:49:27.000Z,86.60
2022-12-04T15:52:23.095Z,86.38
2022-12-04T15:55:00.196Z,86.67
2022-12-04T15:57:34.520Z,86.40
2022-12-04T16:00:06.374Z,86.48
2022-12-04T16:02:39.617Z,86.46
2022-12-04T16:05:12.360Z,86.52
2022-12-04T16:07:52.999Z,86.50
2022-12-04T16:10:23.851Z,86.22
2022-12-04T16:12:59.427Z,86.42
2022-12-04T16:15:34.925Z,86.71
2022-12-04T16:18:06.090Z,86.85
2022-12-04T16:20:37.286Z,87.02
2022-12-04T16:23:04.842Z,87.07
2022-12-04T16:25:32.062Z,87.44
2022-12-04T16:27:59.774Z,87.45
2022-12-04T16:30:28.409Z,87.90
2022-12-04T16:32:55.094Z,87.42
2022-12-04T16:35:21.678Z,87.56
2022-12-04T16:37:48.424Z,87.69
2022-12-04T16:40:15.621Z,87.72
2022-12-04T16:42:42.778Z,87.68
2022-12-04T16:45:31.870Z,87.83
2022-12-04T16:47:58.586Z,87.95
2022-12-04T16:50:27.028Z,87.95
2022-12-04T16:52:54.147Z,88.12
2022-12-04T16:55:41.313Z,88.19
2022-12-04T16:58:08.341Z,88.21
2022-12-04T17:00:36.514Z,88.05
2022-12-04T17:03:04.520Z,87.91
2022-12-04T17:05:35.780Z,87.95
2022-12-04T17:08:03.888Z,87.67
2022-12-04T17:10:30.614Z,87.30
2022-12-04T17:12:57.294Z,87.30
2022-12-04T17:15:24.129Z,87.24
2022-12-04T17:17:51.163Z,87.05
2022-12-04T17:20:19.774Z,87.34
2022-12-04T17:22:46.426Z,86.83
2022-12-04T17:25:13.786Z,87.09
2022-12-04T17:27:40.610Z,87.29
2022-12-04T17:30:09.934Z,87.24
2022-12-04T17:32:36.977Z,87.40
2022-12-04T17:35:05.808Z,87.26
2022-12-04T17:37:33.659Z,87.32
2022-12-04T17:40:00.324Z,87.46
2022-12-04T17:42:27.878Z,87.58
2022-12-04T17:44:54.600Z,87.59
2022-12-04T17:47:21.503Z,87.39
2022-12-04T17:49:48.129Z,87.32
2022-12-04T17:52:14.986Z,87.52
2022-12-04T17:54:41.717Z,87.61
2022-12-04T17:57:08.367Z,87.56
2022-12-04T17:59:35.036Z,87.45
2022-12-04T18:02:04.085Z,87.54
2022-12-04T18:04:30.726Z,87.53
2022-12-04T18:06:57.417Z,87.35
2022-12-04T18:09:24.019Z,87.49
2022-12-04T18:11:50.793Z,87.46
2022-12-04T18:14:22.222Z,87.66
2022-12-04T18:16:53.283Z,87.86
2022-12-04T18:19:22.021Z,87.84
2022-12-04T18:21:49.082Z,87.95
2022-12-04T18:24:16.900Z,88.05
2022-12-04T18:26:46.059Z,88.23
2022-12-04T18:29:14.780Z,88.31
2022-12-04T18:31:41.890Z,88.30
2022-12-04T18:34:09.494Z,87.53
2022-12-04T18:36:40.002Z,87.82
2022-12-04T18:39:10.771Z,87.90
2022-12-04T18:41:37.656Z,87.87
2022-12-04T18:44:04.606Z,88.05
2022-12-04T18:46:31.534Z,88.09
2022-12-04T18:48:59.289Z,88.14
2022-12-04T18:51:27.321Z,88.42
2022-12-04T18:53:57.301Z,88.48
2022-12-04T18:56:24.365Z,88.77
2022-12-04T18:58:56.813Z,88.74
2022-12-04T19:01:23.573Z,88.83
2022-12-04T19:03:50.249Z,88.85
2022-12-04T19:06:16.945Z,88.72
2022-12-04T19:08:43.811Z,88.98
2022-12-04T19:11:13.159Z,88.54
2022-12-04T19:13:40.176Z,88.90
2022-12-04T19:16:17.440Z,88.99
2022-12-04T19:18:47.754Z,89.06
2022-12-04T19:21:16.233Z,89.49
2022-12-04T19:23:48.462Z,89.30
2022-12-04T19:26:15.268Z,89.46
2022-12-04T19:28:41.921Z,89.30
2022-12-04T19:31:35.929Z,89.40
2022-12-04T19:34:03.470Z,89.59
2022-12-04T19:36:31.429Z,89.66
2022-12-04T19:38:58.900Z,89.93
2022-12-04T19:41:30.252Z,89.97
2022-12-04T19:43:59.744Z,89.85
2022-12-04T19:46:30.561Z,90.03
2022-12-04T19:49:01.552Z,89.97
2022-12-04T19:51:29.000Z,90.10
2022-12-04T19:53:55.719Z,90.30
2022-12-04T19:56:25.221Z,90.42
2022-12-04T19:58:53.387Z,90.56
2022-12-04T20:01:24.783Z,90.47
2022-12-04T20:03:51.468Z,90.35
2022-12-04T20:06:21.259Z,90.26
2022-12-04T20:08:53.001Z,90.41
2022-12-04T20:11:19.853Z,90.33
2022-12-04T20:13:48.866Z,90.53
2022-12-04T20:16:18.445Z,90.48
2022-12-04T20:18:45.593Z,90.59
2022-12-04T20:21:13.664Z,90.54
2022-12-04T20:23:41.437Z,90.59
2022-12-04T20:26:09.989Z,90.60
2022-12-04T20:28:37.326Z,90.21
2022-12-04T20:31:18.748Z,90.38
2022-12-04T20:33:47.278Z,90.41
2022-12-04T20:36:15.675Z,90.26
2022-12-04T20:38:42.780Z,90.14
2022-12-04T20:41:13.377Z,90.46
2022-12-04T20:43:40.114Z,90.52
2022-12-04T20:46:18.419Z,90.71
2022-12-04T20:48:48.979Z,91.03
2022-12-04T20:51:23.744Z,91.32
2022-12-04T20:53:51.811Z,91.25
2022-12-04T20:56:19.587Z,91.08
2022-12-04T20:58:46.353Z,91.13
2022-12-04T21:01:18.732Z,91.18
2022-12-04T21:03:47.053Z,90.97
2022-12-04T21:06:16.905Z,90.79
2022-12-04T21:08:57.010Z,90.90
2022-12-04T21:11:25.952Z,90.64
2022-12-04T21:14:26.107Z,90.77
2022-12-04T21:16:52.787Z,90.84
2022-12-04T21:19:21.856Z,90.75
2022-12-04T21:21:49.082Z,90.49
2022-12-04T21:24:17.756Z,90.64
2022-12-04T21:26:44.958Z,90.71
2022-12-04T21:29:11.714Z,90.75
2022-12-04T21:31:39.194Z,90.71
2022-12-04T21:34:07.827Z,90.56
2022-12-04T21:36:34.750Z,90.56
2022-12-04T21:39:01.416Z,91.01
2022-12-04T21:41:46.589Z,90.98
2022-12-04T21:44:16.435Z,91.15
2022-12-04T21:46:44.517Z,91.03
2022-12-04T21:49:11.956Z,91.23
2022-12-04T21:54:27.689Z,90.99
2022-12-04T21:56:55.155Z,91.00
2022-12-04T21:59:22.061Z,90.96
2022-12-04T22:01:48.818Z,91.06
2022-12-04T22:04:15.746Z,91.17
2022-12-04T22:06:42.795Z,91.18
2022-12-04T22:09:11.640Z,91.34
2022-12-04T22:11:41.354Z,91.04
2022-12-04T22:14:09.218Z,91.16
2022-12-04T22:16:41.656Z,91.20
2022-12-04T22:19:09.857Z,91.10
2022-12-04T22:21:36.615Z,91.33
2022-12-04T22:24:04.200Z,91.03
2022-12-04T22:26:31.372Z,91.22
2022-12-04T22:28:58.130Z,91.15
2022-12-04T22:31:27.984Z,91.11
2022-12-04T22:33:56.280Z,91.22
2022-12-04T22:36:25.794Z,91.26
2022-12-04T22:39:08.680Z,91.19
2022-12-04T22:41:35.801Z,91.12
2022-12-04T22:44:02.410Z,91.16
2022-12-04T22:46:29.216Z,91.36
2022-12-04T22:48:55.933Z,91.41
2022-12-04T22:51:23.019Z,91.46
2022-12-04T22:53:55.596Z,91.36
2022-12-04T22:56:31.701Z,91.38
2022-12-04T22:58:59.190Z,91.42
2022-12-04T23:01:28.368Z,91.71
2022-12-04T23:03:55.334Z,91.78
2022-12-04T23:06:24.096Z,91.83
2022-12-04T23:08:55.623Z,91.75
2022-12-04T23:11:23.536Z,91.74
2022-12-04T23:13:52.871Z,91.92
2022-12-04T23:16:21.186Z,91.72
2022-12-04T23:18:48.356Z,91.97
2022-12-04T23:21:17.590Z,91.98
2022-12-04T23:23:46.131Z,91.95
2022-12-04T23:26:15.850Z,91.76
2022-12-04T23:28:42.848Z,91.47
2022-12-04T23:31:11.023Z,91.38
2022-12-04T23:33:38.637Z,91.02
2022-12-04T23:36:06.529Z,91.11
2022-12-04T23:38:38.006Z,91.25
2022-12-04T23:41:12.138Z,91.84
2022-12-04T23:43:39.545Z,91.99
2022-12-04T23:46:14.629Z,92.11
2022-12-04T23:48:43.107Z,92.12
2022-12-04T23:51:11.848Z,92.27
2022-12-04T23:53:39.088Z,92.14
2022-12-04T23:56:18.462Z,92.02
2022-12-04T23:58:46.999Z,91.99
